Time;durP1;ratioP1;P1;durP2;ratioP2;P2;SDS_P1;SDS_P2;PMS_P1;PMS_P2;Temp;Humidity;BMP_temperature;BMP_pressure;BME280_temperature;BME280_humidity;BME280_pressure;Samples;Min_cycle;Max_cycle;Signal;HPM_P1;HPM_P2
2021/05/26 00:01:59;;;;;;;;;;;;;;;20.57;37.05;99937.84;4414352;32;19955;-52
2021/05/26 00:04:25;;;;;;;;;;;;;;;20.56;37.34;99936.06;4401759;32;19954;-50
2021/05/26 00:06:51;;;;;;;;;;;;;;;20.62;37.06;99942.28;4402424;32;19983;-50
2021/05/26 00:09:17;;;;;;;;;;;;;;;20.65;37.03;99949.34;4415328;32;19954;-49
2021/05/26 00:11:43;;;;;;;;;;;;;;;20.59;37.12;99944.91;4416485;32;19955;-47
2021/05/26 00:14:09;;;;;;;;;;;;;;;20.56;37.10;99941.34;4416259;32;19968;-50
2021/05/26 00:16:37;;;;;;;;;;;;;;;20.54;37.32;99941.38;4423468;32;19964;-51
2021/05/26 00:19:03;;;;;;;;;;;;;;;20.53;37.23;99944.88;4402324;32;19955;-50
2021/05/26 00:21:30;;;;;;;;;;;;;;;20.54;37.37;99938.72;4401754;32;20045;-50
2021/05/26 00:23:56;;;;;;;;;;;;;;;20.54;37.36;99935.19;4413846;32;20327;-48
2021/05/26 00:26:22;;;;;;;;;;;;;;;20.56;37.10;99922.84;4416929;32;19966;-51
2021/05/26 00:28:48;;;;;;;;;;;;;;;20.56;37.21;99928.12;4415758;32;19997;-52
2021/05/26 00:31:20;;;;;;;;;;;;;;;20.53;37.32;99918.44;4416022;32;19989;-51
2021/05/26 00:33:46;;;;;;;;;;;;;;;20.52;37.43;99915.78;4416562;32;20007;-50
2021/05/26 00:36:11;;;;;;;;;;;;;;;20.57;37.27;99900.81;4416101;32;19974;-49
2021/05/26 00:38:37;;;;;;;;;;;;;;;20.50;37.39;99899.91;4415556;32;19992;-51
2021/05/26 00:41:03;;;;;;;;;;;;;;;20.49;37.49;99899.03;4415480;32;19970;-47
2021/05/26 00:43:29;;;;;;;;;;;;;;;20.53;37.37;99894.63;4408267;32;20413;-49
2021/05/26 00:45:55;;;;;;;;;;;;;;;20.49;37.54;99884.91;4400970;32;20077;-49
2021/05/26 00:48:21;;;;;;;;;;;;;;;20.51;37.36;99877.88;4407171;32;19950;-50
2021/05/26 00:50:47;;;;;;;;;;;;;;;20.49;37.41;99876.97;4415574;32;19982;-52
2021/05/26 00:53:13;;;;;;;;;;;;;;;20.54;37.17;99876.97;4417446;32;19954;-54
2021/05/26 00:55:39;;;;;;;;;;;;;;;20.52;37.32;99868.16;4401591;32;19998;-47
2021/05/26 00:58:05;;;;;;;;;;;;;;;20.50;37.39;99871.69;4404222;32;19964;-51
2021/05/26 01:00:31;;;;;;;;;;;;;;;20.49;37.44;99872.56;4416955;32;20003;-51
2021/05/26 01:02:57;;;;;;;;;;;;;;;20.50;37.65;99876.12;4419526;32;19951;-52
2021/05/26 01:05:22;;;;;;;;;;;;;;;20.48;37.32;99870.81;4418816;32;20049;-47
2021/05/26 01:07:48;;;;;;;;;;;;;;;20.53;37.39;99869.94;4415650;32;19992;-50
2021/05/26 01:10:14;;;;;;;;;;;;;;;20.52;37.48;99868.16;4417872;32;20577;-50
2021/05/26 01:12:40;;;;;;;;;;;;;;;20.54;37.40;99866.41;4419527;32;19991;-49
2021/05/26 01:15:06;;;;;;;;;;;;;;;20.50;37.68;99860.25;4418066;32;19946;-47
2021/05/26 01:17:34;;;;;;;;;;;;;;;20.49;37.57;99863.75;4418033;32;19934;-46
2021/05/26 01:20:00;;;;;;;;;;;;;;;20.40;37.77;99864.59;4404917;32;20360;-52
2021/05/26 01:22:26;;;;;;;;;;;;;;;20.44;37.65;99866.41;4401704;32;19954;-52
2021/05/26 01:24:52;;;;;;;;;;;;;;;20.47;37.40;99866.41;4414517;32;19942;-46
2021/05/26 01:27:18;;;;;;;;;;;;;;;20.44;37.51;99865.50;4424881;32;19958;-52
2021/05/26 01:29:43;;;;;;;;;;;;;;;20.41;37.64;99870.78;4407778;32;19958;-48
2021/05/26 01:32:09;;;;;;;;;;;;;;;20.48;37.59;99868.16;4402911;32;19974;-53
2021/05/26 01:34:35;;;;;;;;;;;;;;;20.46;37.53;99864.63;4412851;32;19958;-50
2021/05/26 01:37:01;;;;;;;;;;;;;;;20.43;37.40;99864.59;4418977;32;19962;-50
2021/05/26 01:39:27;;;;;;;;;;;;;;;20.38;37.61;99863.72;4420322;32;19949;-51
2021/05/26 01:41:55;;;;;;;;;;;;;;;20.43;37.93;99861.94;4434474;32;19986;-52
2021/05/26 01:44:21;;;;;;;;;;;;;;;20.44;37.38;99863.75;4426469;32;20275;-48
2021/05/26 01:46:46;;;;;;;;;;;;;;;20.44;37.67;99855.81;4418228;32;20002;-51
2021/05/26 01:49:12;;;;;;;;;;;;;;;20.43;37.40;99848.72;4418335;32;20010;-52
2021/05/26 01:51:38;;;;;;;;;;;;;;;20.41;37.62;99855.78;4403311;32;20021;-48
2021/05/26 01:54:04;;;;;;;;;;;;;;;20.39;37.76;99852.25;4406449;32;20057;-50
2021/05/26 01:56:31;;;;;;;;;;;;;;;20.43;37.58;99840.78;4418241;32;20003;-48
2021/05/26 01:58:57;;;;;;;;;;;;;;;20.35;37.55;99835.47;4418321;32;20315;-51
2021/05/26 02:01:23;;;;;;;;;;;;;;;20.41;37.60;99842.56;4417534;32;20087;-49
2021/05/26 02:03:48;;;;;;;;;;;;;;;20.44;37.56;99834.66;4417282;32;20294;-51
2021/05/26 02:06:14;;;;;;;;;;;;;;;20.39;37.69;99832.87;4417768;32;19955;-52
2021/05/26 02:08:40;;;;;;;;;;;;;;;20.43;37.68;99832.00;4418148;32;19950;-53
2021/05/26 02:13:50;;;;;;;;;;;;;;;20.37;37.49;99827.56;4418095;32;20384;-50
2021/05/26 02:16:16;;;;;;;;;;;;;;;20.40;37.78;99821.41;4423375;32;19953;-52
2021/05/26 02:18:42;;;;;;;;;;;;;;;20.33;38.20;99815.22;4423187;32;20290;-51
2021/05/26 02:21:08;;;;;;;;;;;;;;;20.33;38.03;99812.56;4403025;32;19955;-49
2021/05/26 02:23:34;;;;;;;;;;;;;;;20.34;37.78;99822.28;4403476;32;19959;-51
2021/05/26 02:26:00;;;;;;;;;;;;;;;20.36;37.76;99820.50;4415337;32;19980;-47
2021/05/26 02:28:26;;;;;;;;;;;;;;;20.41;37.72;99813.47;4417414;32;19995;-50
2021/05/26 02:30:52;;;;;;;;;;;;;;;20.39;37.51;99809.94;4417142;32;19966;-50
2021/05/26 02:33:17;;;;;;;;;;;;;;;20.40;37.67;99816.13;4417408;32;20023;-50
2021/05/26 02:35:43;;;;;;;;;;;;;;;20.32;37.83;99810.81;4418297;32;20051;-53
2021/05/26 02:38:09;;;;;;;;;;;;;;;20.35;37.83;99813.47;4416882;32;19951;-50
2021/05/26 02:40:35;;;;;;;;;;;;;;;20.33;37.79;99802.00;4416472;32;20337;-51
2021/05/26 02:43:01;;;;;;;;;;;;;;;20.39;37.82;99788.78;4417868;32;19961;-48
2021/05/26 02:45:27;;;;;;;;;;;;;;;20.39;37.85;99794.06;4417417;32;20274;-48
2021/05/26 02:47:53;;;;;;;;;;;;;;;20.30;37.90;99788.75;4423614;32;20023;-46
2021/05/26 02:50:19;;;;;;;;;;;;;;;20.35;37.78;99785.25;4416732;32;19961;-50
2021/05/26 02:52:45;;;;;;;;;;;;;;;20.39;37.68;99786.13;4402612;32;19972;-51
2021/05/26 02:55:11;;;;;;;;;;;;;;;20.40;37.64;99779.97;4406653;32;20367;-51
2021/05/26 02:57:36;;;;;;;;;;;;;;;20.45;37.69;99772.94;4417716;32;19954;-48
2021/05/26 03:00:02;;;;;;;;;;;;;;;20.43;37.61;99773.81;4416147;32;20319;-47
2021/05/26 03:02:28;;;;;;;;;;;;;;;20.33;37.83;99772.91;4417364;32;19977;-49
2021/05/26 03:04:54;;;;;;;;;;;;;;;20.38;37.68;99776.44;4417479;32;19950;-49
2021/05/26 03:07:20;;;;;;;;;;;;;;;20.32;37.99;99765.88;4416965;32;19962;-51
2021/05/26 03:09:46;;;;;;;;;;;;;;;20.33;37.91;99768.50;4416571;32;19950;-49
2021/05/26 03:12:12;;;;;;;;;;;;;;;20.34;37.97;99759.69;4417211;32;19968;-50
2021/05/26 03:14:38;;;;;;;;;;;;;;;20.34;37.85;99757.03;4416914;32;20026;-52
2021/05/26 03:17:04;;;;;;;;;;;;;;;20.32;37.93;99760.56;4402524;32;19969;-48
2021/05/26 03:19:29;;;;;;;;;;;;;;;20.37;37.95;99750.88;4401659;32;20321;-49
2021/05/26 03:21:55;;;;;;;;;;;;;;;20.30;38.02;99757.91;4415236;32;20340;-52
2021/05/26 03:24:21;;;;;;;;;;;;;;;20.33;38.09;99751.75;4422654;32;19950;-48
2021/05/26 03:26:47;;;;;;;;;;;;;;;20.34;38.02;99748.22;4405548;32;19990;-51
2021/05/26 03:29:13;;;;;;;;;;;;;;;20.38;37.88;99747.34;4400796;32;19969;-51
2021/05/26 03:31:39;;;;;;;;;;;;;;;20.34;38.13;99750.88;4412109;32;20323;-46
2021/05/26 03:34:05;;;;;;;;;;;;;;;20.33;38.09;99746.47;4416582;32;20028;-49
2021/05/26 03:36:31;;;;;;;;;;;;;;;20.33;37.86;99749.97;4417089;32;20380;-50
2021/05/26 03:38:57;;;;;;;;;;;;;;;20.25;38.11;99749.09;4416153;32;19987;-49
2021/05/26 03:41:22;;;;;;;;;;;;;;;20.25;38.34;99748.19;4416196;32;20116;-50
2021/05/26 03:43:48;;;;;;;;;;;;;;;20.15;38.40;99748.16;4417014;32;19962;-54
2021/05/26 03:46:14;;;;;;;;;;;;;;;20.18;38.49;99744.66;4415610;32;19974;-49
2021/05/26 03:48:40;;;;;;;;;;;;;;;20.28;38.17;99742.91;4416182;32;20010;-52
2021/05/26 03:51:06;;;;;;;;;;;;;;;20.29;38.20;99744.69;4411706;32;20399;-48
2021/05/26 03:53:32;;;;;;;;;;;;;;;20.26;38.39;99739.38;4401834;32;20036;-50
2021/05/26 03:55:58;;;;;;;;;;;;;;;20.16;38.48;99739.34;4390326;32;19989;-52
2021/05/26 03:58:23;;;;;;;;;;;;;;;20.18;38.36;99732.31;4416567;32;20347;-51
2021/05/26 04:00:49;;;;;;;;;;;;;;;20.26;38.37;99728.81;4415616;32;19998;-50
2021/05/26 04:03:15;;;;;;;;;;;;;;;20.30;38.23;99735.84;4415430;32;20002;-48
2021/05/26 04:05:41;;;;;;;;;;;;;;;20.33;38.06;99730.59;4416597;32;20354;-50
2021/05/26 04:08:07;;;;;;;;;;;;;;;20.24;38.58;99733.22;4416326;32;20006;-50
2021/05/26 04:10:33;;;;;;;;;;;;;;;20.22;38.43;99723.53;4422147;32;19957;-51
2021/05/26 04:12:59;;;;;;;;;;;;;;;20.27;38.31;99720.00;4407111;32;20306;-51
2021/05/26 04:15:25;;;;;;;;;;;;;;;20.28;38.23;99721.75;4416445;32;19954;-50
2021/05/26 04:17:51;;;;;;;;;;;;;;;20.18;38.42;99720.88;4416004;32;20592;-48
2021/05/26 04:20:17;;;;;;;;;;;;;;;20.21;38.28;99713.84;4416123;32;19995;-51
2021/05/26 04:22:43;;;;;;;;;;;;;;;20.17;38.42;99712.03;4415968;32;20318;-49
2021/05/26 04:25:09;;;;;;;;;;;;;;;20.16;38.48;99726.13;4415626;32;19973;-51
2021/05/26 04:27:35;;;;;;;;;;;;;;;20.21;38.58;99724.41;4406695;32;19970;-50
2021/05/26 04:30:01;;;;;;;;;;;;;;;20.19;38.55;99723.53;4400518;32;20318;-49
2021/05/26 04:32:27;;;;;;;;;;;;;;;20.22;38.35;99712.94;4409438;32;20428;-50
2021/05/26 04:34:53;;;;;;;;;;;;;;;20.12;38.63;99713.81;4417632;32;19950;-47
2021/05/26 04:37:19;;;;;;;;;;;;;;;20.10;38.55;99702.34;4411621;32;20289;-51
2021/05/26 04:39:45;;;;;;;;;;;;;;;20.14;38.56;99704.09;4403618;32;19954;-50
2021/05/26 04:42:11;;;;;;;;;;;;;;;20.15;38.54;99703.22;4409981;32;19954;-47
2021/05/26 04:44:37;;;;;;;;;;;;;;;20.13;38.58;99693.53;4419426;32;19969;-51
2021/05/26 04:47:02;;;;;;;;;;;;;;;20.12;38.78;99692.66;4420473;32;20016;-53
2021/05/26 04:49:28;;;;;;;;;;;;;;;20.11;38.75;99693.53;4403938;32;19958;-45
2021/05/26 04:51:54;;;;;;;;;;;;;;;20.21;38.38;99679.47;4406889;32;19950;-50
2021/05/26 04:54:20;;;;;;;;;;;;;;;20.14;38.66;99677.66;4418830;32;20299;-51
2021/05/26 04:56:46;;;;;;;;;;;;;;;20.18;38.61;99674.16;4419271;32;19950;-51
2021/05/26 04:59:12;;;;;;;;;;;;;;;20.16;38.75;99675.03;4411164;32;19943;-51
2021/05/26 05:01:38;;;;;;;;;;;;;;;20.14;38.63;99666.22;4418125;32;19980;-52
2021/05/26 05:04:04;;;;;;;;;;;;;;;20.14;38.72;99669.75;4419561;32;19949;-47
2021/05/26 05:06:30;;;;;;;;;;;;;;;20.25;38.38;99664.50;4419984;32;20010;-48
2021/05/26 05:08:56;;;;;;;;;;;;;;;20.17;38.62;99669.75;4405157;32;19976;-52
2021/05/26 05:11:22;;;;;;;;;;;;;;;20.25;38.39;99667.13;4404264;32;20001;-48
2021/05/26 05:13:49;;;;;;;;;;;;;;;20.26;38.29;99671.53;4417213;32;20331;-51
2021/05/26 05:16:15;;;;;;;;;;;;;;;20.25;38.41;99671.53;4425222;32;19957;-53
2021/05/26 05:18:41;;;;;;;;;;;;;;;20.27;38.50;99668.00;4407184;32;20318;-49
2021/05/26 05:21:07;;;;;;;;;;;;;;;20.19;38.56;99664.47;4420220;32;19965;-50
2021/05/26 05:23:34;;;;;;;;;;;;;;;20.16;38.53;99665.34;4417151;32;19950;-50
2021/05/26 05:26:00;;;;;;;;;;;;;;;20.19;38.62;99660.06;4413574;32;20291;-53
2021/05/26 05:28:26;;;;;;;;;;;;;;;20.19;38.67;99664.47;4416454;32;19988;-53
2021/05/26 05:30:52;;;;;;;;;;;;;;;20.15;38.73;99658.28;4413271;32;19953;-50
2021/05/26 05:33:18;;;;;;;;;;;;;;;20.11;38.80;99659.16;4412846;32;20365;-51
2021/05/26 05:35:44;;;;;;;;;;;;;;;20.07;38.99;99654.78;4412570;32;19961;-50
2021/05/26 05:38:10;;;;;;;;;;;;;;;20.10;39.00;99657.41;4411942;32;20264;-54
2021/05/26 05:40:36;;;;;;;;;;;;;;;20.10;38.81;99652.13;4409898;32;19974;-48
2021/05/26 05:43:02;;;;;;;;;;;;;;;20.12;38.80;99645.06;4413029;32;19962;-52
2021/05/26 05:45:28;;;;;;;;;;;;;;;20.20;38.63;99656.56;4410605;32;20392;-52
2021/05/26 05:47:53;;;;;;;;;;;;;;;20.20;38.61;99651.25;4412765;32;19949;-49
2021/05/26 05:50:19;;;;;;;;;;;;;;;20.19;38.60;99646.84;4409707;32;19958;-46
2021/05/26 05:52:48;;;;;;;;;;;;;;;20.18;38.80;99642.41;4414549;32;20278;-51
2021/05/26 05:55:14;;;;;;;;;;;;;;;20.25;38.58;99638.06;4408495;32;19995;-49
2021/05/26 05:57:40;;;;;;;;;;;;;;;20.21;38.58;99641.56;4411096;32;19951;-50
2021/05/26 06:00:05;;;;;;;;;;;;;;;20.16;38.83;99640.69;4411338;32;19950;-53
2021/05/26 06:02:32;;;;;;;;;;;;;;;20.25;38.63;99642.44;4409979;32;19958;-54
2021/05/26 06:04:57;;;;;;;;;;;;;;;20.20;38.61;99640.69;4412459;32;19989;-49
2021/05/26 06:07:23;;;;;;;;;;;;;;;20.28;38.53;99645.09;4407641;32;20456;-51
2021/05/26 06:09:51;;;;;;;;;;;;;;;20.22;38.60;99638.94;4417056;32;19965;-50
2021/05/26 06:12:17;;;;;;;;;;;;;;;20.22;38.71;99638.94;4418376;32;19958;-49
2021/05/26 06:14:46;;;;;;;;;;;;;;;20.29;38.51;99639.81;4414555;32;19969;-50
2021/05/26 06:17:11;;;;;;;;;;;;;;;20.26;38.62;99638.91;4402851;32;20397;-53
2021/05/26 06:19:38;;;;;;;;;;;;;;;20.27;38.43;99636.28;4419292;32;19974;-53
2021/05/26 06:22:03;;;;;;;;;;;;;;;20.20;38.62;99638.03;4429552;32;19987;-54
2021/05/26 06:24:29;;;;;;;;;;;;;;;20.26;38.68;99638.91;4413878;32;19965;-53
2021/05/26 06:26:55;;;;;;;;;;;;;;;20.18;38.88;99634.50;4412648;32;19951;-50
2021/05/26 06:29:21;;;;;;;;;;;;;;;20.22;38.86;99632.75;4409520;32;20331;-49
2021/05/26 06:31:47;;;;;;;;;;;;;;;20.21;38.75;99637.16;4413253;32;19947;-53
2021/05/26 06:34:13;;;;;;;;;;;;;;;20.28;38.61;99632.75;4408371;32;20473;-53
2021/05/26 06:36:39;;;;;;;;;;;;;;;20.32;38.60;99636.28;4417021;32;19984;-52
2021/05/26 06:39:05;;;;;;;;;;;;;;;20.30;38.63;99631.00;4415705;32;20264;-50
2021/05/26 06:41:31;;;;;;;;;;;;;;;20.29;38.64;99633.63;4416083;32;19946;-48
2021/05/26 06:43:57;;;;;;;;;;;;;;;20.31;38.64;99631.88;4418871;32;19954;-48
2021/05/26 06:46:23;;;;;;;;;;;;;;;20.25;38.79;99634.50;4399587;32;20374;-52
2021/05/26 06:48:49;;;;;;;;;;;;;;;20.29;38.64;99633.63;4405621;32;19991;-46
2021/05/26 06:51:15;;;;;;;;;;;;;;;20.32;38.43;99633.66;4415713;32;20006;-50
2021/05/26 06:53:40;;;;;;;;;;;;;;;20.27;38.72;99628.34;4413620;32;19954;-50
2021/05/26 06:56:06;;;;;;;;;;;;;;;20.27;38.69;99624.81;4415093;32;19950;-48
2021/05/26 06:58:32;;;;;;;;;;;;;;;20.24;38.76;99624.81;4420920;32;19943;-50
2021/05/26 07:00:58;;;;;;;;;;;;;;;20.28;38.65;99619.53;4400567;32;19984;-46
2021/05/26 07:03:24;;;;;;;;;;;;;;;20.33;38.45;99619.56;4400010;32;19983;-47
2021/05/26 07:05:50;;;;;;;;;;;;;;;20.29;38.51;99617.75;4415325;32;19958;-48
2021/05/26 07:08:16;;;;;;;;;;;;;;;20.26;38.67;99617.78;4415704;32;20349;-48
2021/05/26 07:10:42;;;;;;;;;;;;;;;20.29;38.58;99612.47;4415132;32;19950;-53
2021/05/26 07:13:08;;;;;;;;;;;;;;;20.35;38.45;99607.19;4416749;32;20013;-49
2021/05/26 07:15:34;;;;;;;;;;;;;;;20.36;38.52;99604.53;4410749;32;19964;-48
2021/05/26 07:17:59;;;;;;;;;;;;;;;20.39;38.46;99608.97;4400367;32;20325;-53
2021/05/26 07:20:25;;;;;;;;;;;;;;;20.41;38.39;99606.31;4413037;32;19971;-53
2021/05/26 07:22:51;;;;;;;;;;;;;;;20.41;38.30;99609.84;4425241;32;19949;-53
2021/05/26 07:25:17;;;;;;;;;;;;;;;20.38;38.57;99607.19;4414496;32;19982;-52
2021/05/26 07:27:43;;;;;;;;;;;;;;;20.41;38.28;99606.31;4425282;32;20290;-51
2021/05/26 07:30:09;;;;;;;;;;;;;;;20.43;38.31;99597.50;4422950;32;20756;-51
2021/05/26 07:32:35;;;;;;;;;;;;;;;20.43;38.32;99605.41;4415493;32;19983;-53
2021/05/26 07:35:01;;;;;;;;;;;;;;;20.44;38.37;99608.97;4409548;32;19954;-52
2021/05/26 07:37:27;;;;;;;;;;;;;;;20.43;38.55;99601.91;4415250;32;19958;-50
2021/05/26 07:39:53;;;;;;;;;;;;;;;20.41;38.58;99607.19;4406576;32;19961;-47
2021/05/26 07:42:18;;;;;;;;;;;;;;;20.41;38.48;99601.91;4401586;32;19954;-51
2021/05/26 07:44:44;;;;;;;;;;;;;;;20.43;38.58;99605.41;4403849;32;19954;-49
2021/05/26 07:47:10;;;;;;;;;;;;;;;20.41;38.65;99601.91;4415160;32;19951;-53
2021/05/26 07:49:36;;;;;;;;;;;;;;;20.39;38.58;99602.81;4414611;32;20009;-51
2021/05/26 07:52:05;;;;;;;;;;;;;;;20.39;38.62;99603.66;4415397;32;19961;-51
2021/05/26 07:54:31;;;;;;;;;;;;;;;20.43;38.68;99602.78;4415011;32;19950;-50
2021/05/26 07:56:58;;;;;;;;;;;;;;;20.44;38.46;99593.09;4400682;32;20418;-48
2021/05/26 07:59:24;;;;;;;;;;;;;;;20.42;38.56;99589.56;4405572;32;20022;-49
2021/05/26 08:01:50;;;;;;;;;;;;;;;20.48;38.46;99587.81;4412235;32;20290;-47
2021/05/26 08:04:16;;;;;;;;;;;;;;;20.37;38.85;99594.84;4415483;32;19951;-49
2021/05/26 08:06:42;;;;;;;;;;;;;;;20.43;38.65;99589.56;4415615;32;19954;-52
2021/05/26 08:09:08;;;;;;;;;;;;;;;20.49;38.66;99592.22;4403161;32;20000;-50
2021/05/26 08:11:34;;;;;;;;;;;;;;;20.52;38.61;99587.78;4416465;32;19953;-46
2021/05/26 08:14:00;;;;;;;;;;;;;;;20.50;38.63;99591.31;4419568;32;19954;-54
2021/05/26 08:16:25;;;;;;;;;;;;;;;20.50;38.66;99585.16;4417851;32;19958;-45
2021/05/26 08:18:51;;;;;;;;;;;;;;;20.50;38.64;99588.69;4418019;32;19958;-49
2021/05/26 08:21:17;;;;;;;;;;;;;;;20.45;38.81;99574.59;4419287;32;20294;-45
2021/05/26 08:23:43;;;;;;;;;;;;;;;20.44;38.89;99575.47;4419966;32;19953;-45
2021/05/26 08:26:11;;;;;;;;;;;;;;;20.45;38.88;99571.06;4418159;32;19958;-45
2021/05/26 08:28:37;;;;;;;;;;;;;;;20.45;38.88;99571.94;4418790;32;19970;-45
2021/05/26 08:31:03;;;;;;;;;;;;;;;20.49;38.88;99573.69;4418414;32;19942;-49
2021/05/26 08:33:29;;;;;;;;;;;;;;;20.53;38.78;99565.75;4418936;32;19938;-45
2021/05/26 08:35:55;;;;;;;;;;;;;;;20.53;38.79;99571.94;4417942;32;20010;-57
2021/05/26 08:38:21;;;;;;;;;;;;;;;20.35;39.49;99570.19;4417282;32;19953;-55
2021/05/26 08:40:47;;;;;;;;;;;;;;;19.47;41.75;99568.28;4416880;32;19951;-56
2021/05/26 08:43:13;;;;;;;;;;;;;;;18.82;43.17;99564.41;4417614;32;19965;-56
2021/05/26 08:45:39;;;;;;;;;;;;;;;18.51;43.89;99574.75;4416476;32;19954;-56
2021/05/26 08:48:05;;;;;;;;;;;;;;;18.27;44.47;99575.44;4417491;32;19992;-56
2021/05/26 08:50:30;;;;;;;;;;;;;;;18.23;44.53;99574.56;4417966;32;20720;-55
2021/05/26 08:52:56;;;;;;;;;;;;;;;18.12;44.78;99574.44;4417733;32;19969;-56
2021/05/26 08:55:22;;;;;;;;;;;;;;;18.24;44.57;99573.69;4417274;32;20054;-56
2021/05/26 08:57:48;;;;;;;;;;;;;;;18.50;44.10;99573.00;4418755;32;19949;-55
2021/05/26 09:00:14;;;;;;;;;;;;;;;18.59;44.14;99568.69;4416531;32;19954;-56
2021/05/26 09:02:40;;;;;;;;;;;;;;;17.84;45.55;99565.34;4417462;32;19985;-56
2021/05/26 09:05:06;;;;;;;;;;;;;;;17.64;46.55;99558.16;4417502;32;19961;-56
2021/05/26 09:07:33;;;;;;;;;;;;;;;17.80;45.89;99568.84;4417450;32;19957;-56
2021/05/26 09:09:59;;;;;;;;;;;;;;;18.03;45.16;99557.69;4417802;32;19973;-58
2021/05/26 09:12:25;;;;;;;;;;;;;;;18.06;45.42;99561.22;4406821;32;19954;-57
2021/05/26 09:14:51;;;;;;;;;;;;;;;18.10;45.45;99556.88;4402118;32;19954;-58
2021/05/26 09:17:17;;;;;;;;;;;;;;;18.31;45.40;99547.34;4411512;32;19991;-57
2021/05/26 09:19:43;;;;;;;;;;;;;;;18.10;45.50;99549.84;4418027;32;19958;-57
2021/05/26 09:22:08;;;;;;;;;;;;;;;18.00;45.94;99549.72;4407905;32;20014;-57
2021/05/26 09:24:35;;;;;;;;;;;;;;;18.12;45.62;99544.59;4402814;32;19958;-57
2021/05/26 09:27:01;;;;;;;;;;;;;;;18.11;46.12;99548.09;4415763;32;19958;-57
2021/05/26 09:29:27;;;;;;;;;;;;;;;18.05;45.98;99548.03;4416288;32;19972;-57
2021/05/26 09:31:52;;;;;;;;;;;;;;;17.88;46.39;99543.47;4411725;32;19954;-58
2021/05/26 09:34:18;;;;;;;;;;;;;;;17.95;46.28;99542.63;4402103;32;20588;-58
2021/05/26 09:36:44;;;;;;;;;;;;;;;18.04;46.46;99546.28;4406225;32;19946;-57
2021/05/26 09:39:10;;;;;;;;;;;;;;;17.91;46.65;99540.84;4417199;32;19954;-57
2021/05/26 09:41:36;;;;;;;;;;;;;;;18.11;46.46;99537.56;4414546;32;20323;-57
2021/05/26 09:44:02;;;;;;;;;;;;;;;18.15;46.43;99538.44;4401026;32;19996;-56
2021/05/26 09:46:28;;;;;;;;;;;;;;;17.95;47.80;99540.00;4417639;32;19974;-57
2021/05/26 09:48:54;;;;;;;;;;;;;;;17.97;47.48;99540.94;4431476;32;19973;-57
2021/05/26 09:51:20;;;;;;;;;;;;;;;18.04;47.39;99538.38;4433176;32;19973;-57
2021/05/26 09:53:46;;;;;;;;;;;;;;;17.63;48.90;99530.06;4418675;32;20558;-57
2021/05/26 09:56:12;;;;;;;;;;;;;;;17.58;48.85;99529.13;4425010;32;19977;-57
2021/05/26 09:58:37;;;;;;;;;;;;;;;17.46;49.52;99532.50;4431799;32;19962;-57
2021/05/26 10:01:03;;;;;;;;;;;;;;;17.40;49.81;99535.97;4429312;32;20322;-60
2021/05/26 10:03:30;;;;;;;;;;;;;;;17.80;49.35;99532.88;4420842;32;19984;-58
2021/05/26 10:05:55;;;;;;;;;;;;;;;17.81;49.50;99525.84;4417115;32;19953;-57
2021/05/26 10:08:21;;;;;;;;;;;;;;;17.78;49.71;99517.91;4429479;32;20348;-56
2021/05/26 10:10:51;;;;;;;;;;;;;;;17.66;49.35;99519.56;4432652;32;19982;-54
2021/05/26 10:13:17;;;;;;;;;;;;;;;17.57;49.84;99524.72;4422260;32;20019;-54
2021/05/26 10:15:43;;;;;;;;;;;;;;;17.25;50.27;99517.38;4418427;32;20327;-56
2021/05/26 10:18:08;;;;;;;;;;;;;;;17.13;50.53;99512.81;4426223;32;19942;-56
2021/05/26 10:20:34;;;;;;;;;;;;;;;17.39;50.13;99514.88;4432843;32;19956;-57
2021/05/26 10:23:01;;;;;;;;;;;;;;;17.48;49.78;99514.97;4425367;32;19995;-56
2021/05/26 10:25:27;;;;;;;;;;;;;;;17.78;49.33;99504.75;4419265;32;19972;-56
2021/05/26 10:27:52;;;;;;;;;;;;;;;17.73;49.52;99509.97;4426250;32;19954;-54
2021/05/26 10:30:18;;;;;;;;;;;;;;;17.75;49.24;99504.72;4425263;32;20050;-50
2021/05/26 10:32:44;;;;;;;;;;;;;;;17.87;48.55;99507.47;4426901;32;20615;-48
2021/05/26 10:35:10;;;;;;;;;;;;;;;18.30;47.39;99500.78;4419975;32;19950;-53
2021/05/26 10:37:37;;;;;;;;;;;;;;;18.69;46.14;99501.91;4425248;32;19938;-52
2021/05/26 10:40:04;;;;;;;;;;;;;;;18.97;45.18;99494.16;4429380;32;20584;-50
2021/05/26 10:42:29;;;;;;;;;;;;;;;19.11;44.74;99494.22;4433266;32;19950;-51
2021/05/26 10:44:55;;;;;;;;;;;;;;;19.21;44.42;99498.66;4434301;32;20340;-54
2021/05/26 10:47:21;;;;;;;;;;;;;;;19.26;44.17;99496.03;4417731;32;20392;-50
2021/05/26 10:49:47;;;;;;;;;;;;;;;19.38;43.89;99492.53;4421487;32;19942;-52
2021/05/26 10:53:08;;;;;;;;;;;;;;;20.02;42.72;99471.50;4437152;31;19981;-51
2021/05/26 10:55:35;;;;;;;;;;;;;;;20.02;42.72;99471.50;4425813;32;19990;-50
2021/05/26 10:58:01;;;;;;;;;;;;;;;19.63;43.12;99493.47;4429519;32;19991;-53
2021/05/26 11:00:27;;;;;;;;;;;;;;;19.66;43.13;99493.47;4421861;32;20374;-52
2021/05/26 11:02:53;;;;;;;;;;;;;;;19.69;43.08;99481.13;4422914;32;19971;-52
2021/05/26 11:05:19;;;;;;;;;;;;;;;19.74;43.03;99480.25;4424378;32;20272;-52
2021/05/26 11:07:45;;;;;;;;;;;;;;;19.77;42.97;99471.47;4425326;32;19957;-53
2021/05/26 11:10:11;;;;;;;;;;;;;;;19.83;42.85;99471.50;4427404;32;19962;-51
2021/05/26 11:12:37;;;;;;;;;;;;;;;19.87;42.78;99467.06;4429218;32;19958;-51
2021/05/26 11:15:03;;;;;;;;;;;;;;;19.88;42.75;99467.06;4428051;32;19957;-52
2021/05/26 11:17:31;;;;;;;;;;;;;;;19.90;42.70;99461.81;4423020;32;20328;-52
2021/05/26 11:19:57;;;;;;;;;;;;;;;19.93;42.66;99462.69;4432513;32;20313;-50
2021/05/26 11:22:23;;;;;;;;;;;;;;;19.96;42.60;99458.31;4437913;32;20059;-51
2021/05/26 11:24:50;;;;;;;;;;;;;;;19.99;42.54;99460.94;4437653;32;19949;-52
2021/05/26 11:27:16;;;;;;;;;;;;;;;20.03;42.42;99452.13;4435069;32;20726;-48
2021/05/26 11:29:42;;;;;;;;;;;;;;;20.07;42.31;99453.91;4436826;32;20003;-52
2021/05/26 11:32:08;;;;;;;;;;;;;;;20.11;42.26;99450.34;4436725;32;19995;-52
2021/05/26 11:34:34;;;;;;;;;;;;;;;20.11;42.20;99442.44;4436582;32;19938;-52
2021/05/26 11:37:00;;;;;;;;;;;;;;;20.14;42.15;99455.62;4439060;32;19953;-53
2021/05/26 11:39:30;;;;;;;;;;;;;;;20.16;42.09;99453.88;4436426;32;20361;-50
2021/05/26 11:41:56;;;;;;;;;;;;;;;20.14;42.13;99445.06;4432866;32;20031;-52
2021/05/26 11:44:22;;;;;;;;;;;;;;;20.16;42.05;99448.56;4434066;32;20987;-52
2021/05/26 11:46:48;;;;;;;;;;;;;;;20.14;42.13;99445.06;4429653;32;19993;-51
2021/05/26 11:49:14;;;;;;;;;;;;;;;20.14;42.30;99439.78;4433433;32;19976;-53
2021/05/26 11:51:40;;;;;;;;;;;;;;;20.20;42.20;99439.78;4427848;32;19954;-51
2021/05/26 11:54:06;;;;;;;;;;;;;;;20.20;42.12;99434.50;4431191;32;19950;-49
2021/05/26 11:56:31;;;;;;;;;;;;;;;20.25;42.00;99433.59;4442998;32;19957;-50
2021/05/26 11:58:57;;;;;;;;;;;;;;;20.25;41.94;99430.94;4439722;32;19996;-52
2021/05/26 12:01:23;;;;;;;;;;;;;;;20.29;41.83;99424.75;4440425;32;20013;-54
2021/05/26 12:03:49;;;;;;;;;;;;;;;20.29;41.79;99424.75;4434869;32;19962;-50
2021/05/26 12:06:15;;;;;;;;;;;;;;;20.29;41.79;99419.47;4432579;32;20017;-53
2021/05/26 12:08:41;;;;;;;;;;;;;;;20.32;41.72;99419.50;4432342;32;19966;-52
2021/05/26 12:11:08;;;;;;;;;;;;;;;20.34;41.70;99420.34;4416228;32;19986;-54
2021/05/26 12:13:34;;;;;;;;;;;;;;;20.34;41.71;99420.34;4418553;32;20291;-50
2021/05/26 12:16:02;;;;;;;;;;;;;;;20.35;41.71;99427.41;4433142;32;19950;-51
2021/05/26 12:18:27;;;;;;;;;;;;;;;20.36;41.67;99418.59;4431059;32;19957;-53
2021/05/26 12:20:53;;;;;;;;;;;;;;;20.36;41.66;99414.16;4418437;32;19997;-51
2021/05/26 12:23:19;;;;;;;;;;;;;;;20.39;41.60;99418.56;4416703;32;19992;-52
2021/05/26 12:25:48;;;;;;;;;;;;;;;20.38;41.61;99427.38;4428800;32;19966;-53
2021/05/26 12:28:14;;;;;;;;;;;;;;;20.39;41.60;99423.84;4432890;32;19961;-53
2021/05/26 12:30:40;;;;;;;;;;;;;;;20.38;41.65;99422.09;4421625;32;19958;-51
2021/05/26 12:33:06;;;;;;;;;;;;;;;20.40;41.58;99415.03;4416016;32;19954;-51
2021/05/26 12:35:32;;;;;;;;;;;;;;;20.41;41.57;99414.16;4427700;32;19950;-53
2021/05/26 12:37:58;;;;;;;;;;;;;;;20.44;41.56;99408.88;4432658;32;19989;-50
2021/05/26 12:40:23;;;;;;;;;;;;;;;20.45;41.57;99397.41;4429856;32;20335;-51
2021/05/26 12:42:49;;;;;;;;;;;;;;;20.44;41.69;99403.59;4424935;32;19958;-49
2021/05/26 12:45:15;;;;;;;;;;;;;;;20.43;41.75;99409.72;4431209;32;19969;-53